| time (UTC) | temp F | wind direction | speed MPH | gust MPH | rain 1hr in | rain 24hr in | rain mn in | humidity % | barometer mb |
| 20260510152558 | 77 | 42 | 4.0 | 12.0 | 0.00 | 0.00 | 0.00 | 48 | 1013.2 |
| 20260510152043 | 76 | 41 | 5.0 | 12.0 | 0.00 | 0.00 | 0.00 | 48 | 1013.2 |
| 20260510151550 | 76 | 32 | 1.0 | 6.0 | 0.00 | 0.00 | 0.00 | 53 | 1013.3 |
| 20260510151036 | 75 | 32 | 2.0 | 8.0 | 0.00 | 0.00 | 0.00 | 53 | 1013.3 |
| 20260510150519 | 75 | 32 | 4.0 | 8.0 | 0.00 | 0.00 | 0.00 | 60 | 1013.3 |
| 20260510150029 | 75 | 32 | 2.0 | 6.0 | 0.00 | 0.00 | 0.00 | 60 | 1013.3 |
| 20260510145604 | 74 | 32 | 3.0 | 5.0 | 0.00 | 0.00 | 0.00 | 60 | 1013.3 |
| 20260510145046 | 74 | 32 | 1.0 | 6.0 | 0.00 | 0.00 | 0.00 | 59 | 1013.2 |
| 20260510144616 | 73 | 32 | 3.0 | 6.0 | 0.00 | 0.00 | 0.00 | 61 | 1013.2 |
| 20260510144043 | 73 | 32 | 3.0 | 6.0 | 0.00 | 0.00 | 0.00 | 62 | 1013.2 |
| 20260510143520 | 72 | 32 | 2.0 | 8.0 | 0.00 | 0.00 | 0.00 | 63 | 1013.3 |
| 20260510143042 | 72 | 32 | 3.0 | 8.0 | 0.00 | 0.00 | 0.00 | 64 | 1013.4 |
| 20260510142529 | 72 | 32 | 4.0 | 8.0 | 0.00 | 0.00 | 0.00 | 63 | 1013.5 |
| 20260510142101 | 71 | 32 | 2.0 | 8.0 | 0.00 | 0.00 | 0.00 | 64 | 1013.4 |
| 20260510141507 | 71 | 32 | 4.0 | 8.0 | 0.00 | 0.00 | 0.00 | 66 | 1013.5 |
| 20260510141056 | 70 | 32 | 3.0 | 6.0 | 0.00 | 0.00 | 0.00 | 67 | 1013.5 |
| 20260510140537 | 70 | 32 | 3.0 | 6.0 | 0.00 | 0.00 | 0.00 | 68 | 1013.4 |
| 20260510140048 | 70 | 32 | 3.0 | 6.0 | 0.00 | 0.00 | 0.00 | 68 | 1013.4 |
| 20260510135530 | 69 | 32 | 2.0 | 6.0 | 0.00 | 0.00 | 0.00 | 69 | 1013.4 |
| 20260510135004 | 68 | 32 | 3.0 | 6.0 | 0.00 | 0.00 | 0.00 | 68 | 1013.6 |
| 20260510134521 | 68 | 32 | 2.0 | 5.0 | 0.00 | 0.00 | 0.00 | 69 | 1013.5 |
| 20260510134100 | 68 | 32 | 3.0 | 5.0 | 0.00 | 0.00 | 0.00 | 69 | 1013.6 |
| 20260510133543 | 67 | 32 | 3.0 | 6.0 | 0.00 | 0.00 | 0.00 | 71 | 1013.6 |
| 20260510133032 | 66 | 32 | 3.0 | 5.0 | 0.00 | 0.00 | 0.00 | 73 | 1013.5 |
| 20260510132507 | 66 | 32 | 0.0 | 0.0 | 0.00 | 0.00 | 0.00 | 74 | 1013.5 |
| 20260510132056 | 65 | 32 | 0.0 | 0.0 | 0.00 | 0.00 | 0.00 | 76 | 1013.5 |
| 20260510131556 | 64 | 32 | 0.0 | 0.0 | 0.00 | 0.00 | 0.00 | 77 | 1013.4 |
| 20260510131038 | 64 | 32 | 0.0 | 0.0 | 0.00 | 0.00 | 0.00 | 77 | 1013.4 |
| 20260510130559 | 63 | 32 | 0.0 | 0.0 | 0.00 | 0.00 | 0.00 | 80 | 1013.3 |
| 20260510130003 | 62 | 32 | 0.0 | 0.0 | 0.00 | 0.00 | 0.00 | 83 | 1013.3 |
| 20260510125544 | 62 | 32 | 0.0 | 0.0 | 0.00 | 0.00 | 0.00 | 84 | 1013.3 |
| 20260510125030 | 61 | 32 | 0.0 | 0.0 | 0.00 | 0.00 | 0.00 | 87 | 1013.3 |
| 20260510124552 | 60 | 32 | 0.0 | 0.0 | 0.00 | 0.00 | 0.00 | 89 | 1013.4 |
| 20260510124017 | 59 | 32 | 0.0 | 0.0 | 0.00 | 0.00 | 0.00 | 91 | 1013.3 |
| 20260510123505 | 58 | 32 | 0.0 | 0.0 | 0.00 | 0.00 | 0.00 | 93 | 1013.2 |
| 20260510123028 | 58 | 32 | 0.0 | 0.0 | 0.00 | 0.00 | 0.00 | 95 | 1013.2 |
| 20260510122500 | 57 | 32 | 0.0 | 0.0 | 0.00 | 0.00 | 0.00 | 96 | 1013.2 |
| 20260510122044 | 57 | 32 | 0.0 | 0.0 | 0.00 | 0.00 | 0.00 | 97 | 1013.1 |
| 20260510121557 | 56 | 32 | 0.0 | 0.0 | 0.00 | 0.00 | 0.00 | 97 | 1013.1 |
| 20260510121044 | 55 | 32 | 0.0 | 0.0 | 0.00 | 0.00 | 0.00 | 96 | 1012.9 |
| 20260510120512 | 55 | 32 | 0.0 | 0.0 | 0.00 | 0.00 | 0.00 | 97 | 1012.8 |
| 20260510120033 | 55 | 32 | 0.0 | 0.0 | 0.00 | 0.00 | 0.00 | 97 | 1012.7 |
| 20260510115514 | 55 | 32 | 0.0 | 0.0 | 0.00 | 0.00 | 0.00 | 97 | 1012.7 |
| 20260510115055 | 54 | 32 | 0.0 | 0.0 | 0.00 | 0.00 | 0.00 | 97 | 1012.5 |
| 20260510114505 | 53 | 32 | 0.0 | 0.0 | 0.00 | 0.00 | 0.00 | 97 | 1012.4 |
| 20260510114048 | 53 | 32 | 0.0 | 0.0 | 0.00 | 0.00 | 0.00 | 97 | 1012.4 |
| 20260510113536 | 52 | 32 | 0.0 | 0.0 | 0.00 | 0.00 | 0.00 | 97 | 1012.2 |
| 20260510113051 | 52 | 32 | 0.0 | 0.0 | 0.00 | 0.00 | 0.00 | 97 | 1012.2 |
| 20260510112539 | 52 | 32 | 0.0 | 0.0 | 0.00 | 0.00 | 0.00 | 97 | 1012.0 |
| 20260510112023 | 51 | 32 | 0.0 | 0.0 | 0.00 | 0.00 | 0.00 | 97 | 1011.9 |
| 20260510111534 | 51 | 32 | 0.0 | 0.0 | 0.00 | 0.00 | 0.00 | 97 | 1011.8 |
| 20260510111030 | 51 | 32 | 0.0 | 0.0 | 0.00 | 0.00 | 0.00 | 96 | 1011.8 |
| 20260510110511 | 51 | 32 | 0.0 | 0.0 | 0.00 | 0.00 | 0.00 | 96 | 1011.8 |
| 20260510110044 | 51 | 32 | 0.0 | 0.0 | 0.00 | 0.00 | 0.00 | 96 | 1011.8 |
| 20260510105525 | 51 | 32 | 0.0 | 0.0 | 0.00 | 0.00 | 0.00 | 96 | 1011.7 |
| 20260510105001 | 51 | 32 | 0.0 | 0.0 | 0.00 | 0.00 | 0.00 | 96 | 1011.7 |
| 20260510104511 | 51 | 32 | 0.0 | 0.0 | 0.00 | 0.00 | 0.00 | 96 | 1011.6 |
| 20260510104100 | 51 | 32 | 0.0 | 0.0 | 0.00 | 0.00 | 0.00 | 96 | 1011.4 |
| 20260510103552 | 51 | 32 | 0.0 | 0.0 | 0.00 | 0.00 | 0.00 | 96 | 1011.4 |
| 20260510103011 | 51 | 32 | 0.0 | 0.0 | 0.00 | 0.00 | 0.00 | 96 | 1011.2 |
| 20260510102559 | 51 | 32 | 0.0 | 0.0 | 0.00 | 0.00 | 0.00 | 96 | 1011.1 |
| 20260510102051 | 51 | 32 | 0.0 | 0.0 | 0.00 | 0.00 | 0.00 | 96 | 1011.0 |
| 20260510101502 | 51 | 32 | 0.0 | 0.0 | 0.00 | 0.00 | 0.00 | 96 | 1011.0 |
| 20260510101054 | 51 | 32 | 0.0 | 0.0 | 0.00 | 0.00 | 0.00 | 96 | 1011.0 |
| 20260510100541 | 51 | 32 | 0.0 | 0.0 | 0.00 | 0.00 | 0.00 | 96 | 1011.0 |
| 20260510100056 | 52 | 32 | 0.0 | 0.0 | 0.00 | 0.00 | 0.00 | 96 | 1010.9 |
| 20260510095551 | 52 | 32 | 0.0 | 0.0 | 0.00 | 0.00 | 0.00 | 96 | 1010.9 |
| 20260510095040 | 52 | 32 | 0.0 | 0.0 | 0.00 | 0.00 | 0.00 | 96 | 1010.9 |
| 20260510094602 | 52 | 32 | 0.0 | 1.0 | 0.00 | 0.00 | 0.00 | 96 | 1010.8 |
| 20260510094043 | 52 | 32 | 0.0 | 3.0 | 0.00 | 0.00 | 0.00 | 96 | 1010.7 |
| 20260510093529 | 52 | 32 | 1.0 | 3.0 | 0.00 | 0.00 | 0.00 | 96 | 1010.7 |
| 20260510093111 | 52 | 32 | 0.0 | 2.0 | 0.00 | 0.00 | 0.00 | 96 | 1010.7 |
| 20260510092539 | 53 | 32 | 0.0 | 0.0 | 0.00 | 0.00 | 0.00 | 96 | 1010.6 |
| 20260510092027 | 53 | 32 | 0.0 | 0.0 | 0.00 | 0.00 | 0.00 | 96 | 1010.7 |
| 20260510091537 | 53 | 32 | 0.0 | 0.0 | 0.00 | 0.00 | 0.00 | 96 | 1010.7 |
| 20260510091005 | 53 | 32 | 0.0 | 2.0 | 0.00 | 0.00 | 0.00 | 95 | 1010.7 |
| 20260510090552 | 53 | 32 | 0.0 | 2.0 | 0.00 | 0.00 | 0.00 | 95 | 1010.6 |
| 20260510090105 | 53 | 32 | 0.0 | 0.0 | 0.00 | 0.00 | 0.00 | 95 | 1010.6 |
| 20260510085548 | 54 | 32 | 0.0 | 0.0 | 0.00 | 0.00 | 0.00 | 95 | 1010.4 |
| 20260510085022 | 54 | 32 | 0.0 | 0.0 | 0.00 | 0.00 | 0.00 | 96 | 1010.3 |
| 20260510084539 | 54 | 32 | 0.0 | 0.0 | 0.00 | 0.00 | 0.00 | 96 | 1010.2 |
| 20260510084020 | 54 | 32 | 0.0 | 1.0 | 0.00 | 0.00 | 0.00 | 96 | 1010.1 |
| 20260510083557 | 54 | 32 | 0.0 | 1.0 | 0.00 | 0.00 | 0.00 | 96 | 1010.1 |
| 20260510083015 | 54 | 32 | 0.0 | 0.0 | 0.00 | 0.00 | 0.00 | 95 | 1010.1 |
| 20260510082555 | 55 | 32 | 0.0 | 0.0 | 0.00 | 0.00 | 0.00 | 95 | 1010.0 |
| 20260510082035 | 55 | 32 | 0.0 | 0.0 | 0.00 | 0.00 | 0.00 | 96 | 1010.1 |
| 20260510081544 | 55 | 32 | 0.0 | 0.0 | 0.00 | 0.00 | 0.00 | 96 | 1010.1 |
| 20260510081030 | 55 | 32 | 0.0 | 0.0 | 0.00 | 0.00 | 0.00 | 96 | 1010.0 |
| 20260510080508 | 55 | 32 | 0.0 | 0.0 | 0.00 | 0.00 | 0.00 | 96 | 1009.9 |
| 20260510080028 | 55 | 32 | 0.0 | 0.0 | 0.00 | 0.00 | 0.00 | 96 | 1009.8 |
| 20260510075506 | 55 | 32 | 0.0 | 0.0 | 0.00 | 0.00 | 0.00 | 95 | 1009.8 |
| 20260510075054 | 55 | 32 | 0.0 | 0.0 | 0.00 | 0.00 | 0.00 | 95 | 1009.8 |
| 20260510074605 | 55 | 32 | 0.0 | 0.0 | 0.00 | 0.00 | 0.00 | 95 | 1009.7 |
| 20260510074045 | 56 | 32 | 0.0 | 0.0 | 0.00 | 0.00 | 0.00 | 95 | 1009.8 |
| 20260510073526 | 56 | 32 | 0.0 | 2.0 | 0.00 | 0.00 | 0.00 | 96 | 1009.8 |
| 20260510073044 | 56 | 32 | 0.0 | 2.0 | 0.00 | 0.00 | 0.00 | 96 | 1009.8 |
| 20260510072524 | 56 | 32 | 0.0 | 0.0 | 0.00 | 0.00 | 0.00 | 95 | 1009.6 |
| 20260510072003 | 56 | 32 | 0.0 | 2.0 | 0.00 | 0.00 | 0.00 | 95 | 1009.7 |
| 20260510071553 | 56 | 32 | 0.0 | 3.0 | 0.00 | 0.00 | 0.00 | 95 | 1009.6 |
| 20260510071036 | 56 | 32 | 1.0 | 3.0 | 0.00 | 0.00 | 0.00 | 94 | 1009.6 |
| 20260510070517 | 56 | 32 | 0.0 | 2.0 | 0.00 | 0.00 | 0.00 | 95 | 1009.4 |
| 20260510065555 | 56 | 32 | 0.0 | 3.0 | 0.00 | 0.00 | 0.00 | 95 | 1009.4 |
| 20260510065034 | 56 | 32 | 0.0 | 0.0 | 0.00 | 0.00 | 0.00 | 95 | 1009.4 |
| 20260510064542 | 56 | 32 | 0.0 | 0.0 | 0.00 | 0.00 | 0.00 | 94 | 1009.6 |
| 20260510064020 | 57 | 32 | 0.0 | 0.0 | 0.00 | 0.00 | 0.00 | 94 | 1009.5 |
| 20260510063502 | 57 | 32 | 0.0 | 0.0 | 0.00 | 0.00 | 0.00 | 94 | 1009.5 |
| 20260510063052 | 57 | 32 | 0.0 | 0.0 | 0.00 | 0.00 | 0.00 | 93 | 1009.6 |
| 20260510062536 | 58 | 32 | 0.0 | 0.0 | 0.00 | 0.00 | 0.00 | 94 | 1009.7 |
| 20260510062009 | 58 | 32 | 0.0 | 0.0 | 0.00 | 0.00 | 0.00 | 94 | 1009.7 |
| 20260510061522 | 58 | 32 | 0.0 | 0.0 | 0.00 | 0.00 | 0.00 | 93 | 1009.7 |
| 20260510061003 | 58 | 32 | 0.0 | 0.0 | 0.00 | 0.00 | 0.00 | 94 | 1009.8 |
| 20260510060552 | 58 | 32 | 0.0 | 0.0 | 0.00 | 0.00 | 0.00 | 93 | 1009.8 |
| 20260510060005 | 58 | 32 | 0.0 | 0.0 | 0.00 | 0.00 | 0.00 | 94 | 1009.6 |
| 20260510055550 | 58 | 32 | 0.0 | 0.0 | 0.00 | 0.00 | 0.00 | 93 | 1009.8 |
| 20260510055036 | 59 | 32 | 0.0 | 0.0 | 0.00 | 0.00 | 0.00 | 92 | 1009.8 |
| 20260510054549 | 59 | 32 | 0.0 | 0.0 | 0.00 | 0.00 | 0.00 | 92 | 1009.9 |
| 20260510054031 | 60 | 32 | 0.0 | 0.0 | 0.00 | 0.00 | 0.00 | 91 | 1009.9 |
| 20260510053514 | 60 | 32 | 0.0 | 0.0 | 0.00 | 0.00 | 0.00 | 91 | 1009.8 |
| 20260510053042 | 60 | 32 | 0.0 | 0.0 | 0.00 | 0.00 | 0.00 | 92 | 1009.8 |
| 20260510052506 | 61 | 32 | 0.0 | 0.0 | 0.00 | 0.00 | 0.00 | 92 | 1009.9 |
| 20260510052056 | 61 | 32 | 0.0 | 0.0 | 0.00 | 0.00 | 0.00 | 91 | 1009.8 |
| 20260510051508 | 61 | 32 | 0.0 | 0.0 | 0.00 | 0.00 | 0.00 | 92 | 1009.8 |
| 20260510051059 | 61 | 32 | 0.0 | 0.0 | 0.00 | 0.00 | 0.00 | 91 | 1009.9 |
| 20260510050542 | 61 | 32 | 0.0 | 0.0 | 0.00 | 0.00 | 0.00 | 91 | 1010.0 |
| 20260510050054 | 61 | 32 | 0.0 | 0.0 | 0.00 | 0.00 | 0.00 | 91 | 1010.1 |
| 20260510045537 | 62 | 32 | 0.0 | 0.0 | 0.00 | 0.00 | 0.00 | 91 | 1010.0 |
| 20260510045007 | 62 | 32 | 0.0 | 0.0 | 0.00 | 0.00 | 0.00 | 91 | 1009.9 |
| 20260510044530 | 62 | 32 | 0.0 | 0.0 | 0.00 | 0.00 | 0.00 | 91 | 1010.0 |
| 20260510044022 | 62 | 32 | 0.0 | 0.0 | 0.00 | 0.00 | 0.00 | 91 | 1010.1 |
| 20260510043600 | 62 | 32 | 0.0 | 0.0 | 0.00 | 0.00 | 0.00 | 91 | 1010.1 |
| 20260510043036 | 62 | 32 | 0.0 | 0.0 | 0.00 | 0.00 | 0.00 | 91 | 1009.9 |
| 20260510042556 | 62 | 32 | 0.0 | 0.0 | 0.00 | 0.00 | 0.00 | 91 | 1010.0 |
| 20260510042044 | 62 | 32 | 0.0 | 0.0 | 0.00 | 0.00 | 0.00 | 90 | 1010.0 |
| 20260510041558 | 62 | 32 | 0.0 | 0.0 | 0.00 | 0.00 | 0.00 | 90 | 1010.2 |
| 20260510041046 | 62 | 32 | 0.0 | 0.0 | 0.00 | 0.00 | 0.00 | 89 | 1010.1 |
| 20260510040540 | 63 | 32 | 0.0 | 0.0 | 0.00 | 0.00 | 0.00 | 89 | 1010.0 |
| 20260510040056 | 63 | 32 | 0.0 | 0.0 | 0.00 | 0.00 | 0.00 | 89 | 1010.0 |
| 20260510035546 | 63 | 32 | 0.0 | 2.0 | 0.00 | 0.00 | 0.00 | 88 | 1010.0 |
| 20260510035038 | 63 | 32 | 0.0 | 2.0 | 0.00 | 0.00 | 0.00 | 88 | 1010.2 |
| 20260510034546 | 63 | 32 | 0.0 | 0.0 | 0.00 | 0.00 | 0.00 | 87 | 1010.1 |
| 20260510034031 | 64 | 32 | 0.0 | 0.0 | 0.00 | 0.00 | 0.00 | 87 | 1010.1 |
| 20260510033509 | 64 | 32 | 0.0 | 0.0 | 0.00 | 0.00 | 0.00 | 87 | 1010.1 |
| 20260510033025 | 64 | 32 | 0.0 | 2.0 | 0.00 | 0.00 | 0.00 | 87 | 1010.0 |
| 20260510032600 | 64 | 32 | 0.0 | 3.0 | 0.00 | 0.00 | 0.00 | 87 | 1010.0 |
| 20260510032042 | 64 | 32 | 0.0 | 3.0 | 0.00 | 0.00 | 0.00 | 86 | 1009.8 |
| 20260510031551 | 64 | 32 | 0.0 | 2.0 | 0.00 | 0.00 | 0.00 | 86 | 1010.0 |
| 20260510031034 | 65 | 32 | 0.0 | 4.0 | 0.00 | 0.00 | 0.00 | 84 | 1009.8 |
| 20260510030550 | 65 | 32 | 0.0 | 4.0 | 0.00 | 0.00 | 0.00 | 84 | 1009.7 |
| 20260510030001 | 65 | 32 | 1.0 | 4.0 | 0.00 | 0.00 | 0.00 | 84 | 1009.7 |
| 20260510025555 | 66 | 32 | 0.0 | 3.0 | 0.00 | 0.00 | 0.00 | 84 | 1009.7 |
| 20260510025043 | 66 | 32 | 1.0 | 5.0 | 0.00 | 0.00 | 0.00 | 84 | 1009.7 |
| 20260510024551 | 66 | 32 | 2.0 | 5.0 | 0.00 | 0.00 | 0.00 | 83 | 1009.6 |
| 20260510024034 | 66 | 32 | 0.0 | 5.0 | 0.00 | 0.00 | 0.00 | 83 | 1009.5 |
| 20260510023518 | 66 | 32 | 0.0 | 4.0 | 0.00 | 0.00 | 0.00 | 83 | 1009.4 |
| 20260510023038 | 66 | 32 | 0.0 | 2.0 | 0.00 | 0.00 | 0.00 | 83 | 1009.5 |
| 20260510022525 | 66 | 32 | 0.0 | 3.0 | 0.00 | 0.00 | 0.00 | 82 | 1009.4 |
| 20260510022007 | 66 | 32 | 0.0 | 3.0 | 0.00 | 0.00 | 0.00 | 82 | 1009.4 |
| 20260510021536 | 66 | 32 | 1.0 | 4.0 | 0.00 | 0.00 | 0.00 | 82 | 1009.3 |
| 20260510021000 | 66 | 32 | 2.0 | 4.0 | 0.00 | 0.00 | 0.00 | 82 | 1009.3 |
| 20260510020548 | 66 | 32 | 2.0 | 4.0 | 0.00 | 0.00 | 0.00 | 81 | 1009.2 |
| 20260510020101 | 67 | 32 | 1.0 | 3.0 | 0.00 | 0.00 | 0.00 | 81 | 1009.2 |
| 20260510015546 | 67 | 32 | 0.0 | 3.0 | 0.00 | 0.00 | 0.00 | 81 | 1009.1 |
| 20260510015041 | 67 | 32 | 0.0 | 4.0 | 0.00 | 0.00 | 0.00 | 80 | 1009.0 |
| 20260510014551 | 67 | 32 | 2.0 | 4.0 | 0.00 | 0.00 | 0.00 | 80 | 1008.9 |
| 20260510014041 | 67 | 32 | 1.0 | 4.0 | 0.00 | 0.00 | 0.00 | 79 | 1008.9 |
| 20260510013534 | 67 | 32 | 1.0 | 4.0 | 0.00 | 0.00 | 0.00 | 79 | 1008.7 |
| 20260510013023 | 68 | 32 | 0.0 | 4.0 | 0.00 | 0.00 | 0.00 | 78 | 1008.6 |
| 20260510012501 | 68 | 32 | 0.0 | 4.0 | 0.00 | 0.00 | 0.00 | 78 | 1008.5 |
| 20260510012052 | 68 | 32 | 1.0 | 4.0 | 0.00 | 0.00 | 0.00 | 77 | 1008.4 |
| 20260510011544 | 68 | 32 | 0.0 | 5.0 | 0.00 | 0.00 | 0.00 | 77 | 1008.3 |
| 20260510011027 | 68 | 32 | 2.0 | 4.0 | 0.00 | 0.00 | 0.00 | 77 | 1008.2 |
| 20260510010504 | 69 | 32 | 1.0 | 5.0 | 0.00 | 0.00 | 0.00 | 76 | 1008.0 |
| 20260510010016 | 69 | 32 | 2.0 | 8.0 | 0.00 | 0.00 | 0.00 | 76 | 1008.0 |
| 20260510005501 | 69 | 32 | 1.0 | 6.0 | 0.00 | 0.00 | 0.00 | 76 | 1007.9 |
| 20260510005052 | 69 | 32 | 2.0 | 6.0 | 0.00 | 0.00 | 0.00 | 75 | 1007.8 |
| 20260510004602 | 69 | 32 | 1.0 | 6.0 | 0.00 | 0.00 | 0.00 | 75 | 1007.8 |
| 20260510004048 | 69 | 32 | 1.0 | 6.0 | 0.00 | 0.00 | 0.00 | 75 | 1007.6 |
| 20260510003539 | 69 | 32 | 3.0 | 6.0 | 0.00 | 0.00 | 0.00 | 74 | 1007.6 |
| 20260510003054 | 70 | 32 | 3.0 | 5.0 | 0.00 | 0.00 | 0.00 | 74 | 1007.7 |
| 20260510002546 | 70 | 32 | 1.0 | 4.0 | 0.00 | 0.00 | 0.00 | 73 | 1007.6 |
| 20260510002041 | 70 | 32 | 2.0 | 6.0 | 0.00 | 0.00 | 0.00 | 73 | 1007.6 |
| 20260510001537 | 70 | 32 | 1.0 | 6.0 | 0.00 | 0.00 | 0.00 | 73 | 1007.7 |
| 20260510001001 | 70 | 32 | 3.0 | 8.0 | 0.00 | 0.00 | 0.00 | 73 | 1007.6 |
| 20260510000552 | 70 | 32 | 4.0 | 8.0 | 0.00 | 0.00 | 0.00 | 72 | 1007.5 |
| 20260510000000 | 71 | 33 | 1.0 | 6.0 | 0.00 | 0.00 | 0.00 | 72 | 1007.5 |
| 20260509235545 | 71 | 33 | 1.0 | 3.0 | 0.00 | 0.00 | 0.00 | 72 | 1007.5 |
| 20260509235026 | 71 | 33 | 1.0 | 4.0 | 0.00 | 0.00 | 0.00 | 71 | 1007.5 |
| 20260509234539 | 71 | 33 | 2.0 | 4.0 | 0.00 | 0.00 | 0.00 | 70 | 1007.4 |
| 20260509234023 | 71 | 33 | 2.0 | 4.0 | 0.00 | 0.00 | 0.00 | 70 | 1007.5 |
| 20260509233601 | 72 | 33 | 0.0 | 4.0 | 0.00 | 0.00 | 0.00 | 70 | 1007.4 |
| 20260509233008 | 72 | 33 | 1.0 | 5.0 | 0.00 | 0.00 | 0.00 | 69 | 1007.3 |
| 20260509232554 | 72 | 33 | 2.0 | 5.0 | 0.00 | 0.00 | 0.00 | 69 | 1007.2 |
| 20260509232040 | 72 | 33 | 2.0 | 6.0 | 0.00 | 0.00 | 0.00 | 69 | 1007.0 |
| 20260509231544 | 72 | 33 | 2.0 | 6.0 | 0.00 | 0.00 | 0.00 | 69 | 1007.0 |
| 20260509231019 | 72 | 33 | 1.0 | 6.0 | 0.00 | 0.00 | 0.00 | 68 | 1007.0 |
| 20260509230503 | 72 | 33 | 3.0 | 6.0 | 0.00 | 0.00 | 0.00 | 67 | 1006.9 |
| 20260509230027 | 73 | 33 | 1.0 | 5.0 | 0.00 | 0.00 | 0.00 | 66 | 1006.8 |
| 20260509225511 | 73 | 33 | 0.0 | 5.0 | 0.00 | 0.00 | 0.00 | 66 | 1006.7 |
| 20260509225002 | 73 | 33 | 3.0 | 5.0 | 0.00 | 0.00 | 0.00 | 65 | 1006.4 |
| 20260509224557 | 73 | 33 | 1.0 | 5.0 | 0.00 | 0.00 | 0.00 | 65 | 1006.6 |
| 20260509224048 | 74 | 33 | 2.0 | 10.0 | 0.00 | 0.00 | 0.00 | 63 | 1006.6 |
| 20260509223536 | 74 | 33 | 5.0 | 10.0 | 0.00 | 0.00 | 0.00 | 61 | 1006.7 |
| 20260509223047 | 75 | 32 | 4.0 | 9.0 | 0.00 | 0.00 | 0.00 | 62 | 1006.7 |
| 20260509222534 | 75 | 32 | 4.0 | 8.0 | 0.00 | 0.00 | 0.00 | 62 | 1006.6 |
| 20260509222014 | 75 | 31 | 4.0 | 8.0 | 0.00 | 0.00 | 0.00 | 60 | 1006.6 |
| 20260509221534 | 75 | 31 | 3.0 | 11.0 | 0.00 | 0.00 | 0.00 | 62 | 1006.6 |
| 20260509221009 | 75 | 31 | 5.0 | 12.0 | 0.00 | 0.00 | 0.00 | 60 | 1006.7 |
| 20260509220601 | 74 | 34 | 5.0 | 14.0 | 0.00 | 0.00 | 0.00 | 61 | 1006.7 |
| 20260509220019 | 74 | 30 | 5.0 | 11.0 | 0.00 | 0.00 | 0.00 | 61 | 1006.7 |
| 20260509215524 | 75 | 34 | 4.0 | 13.0 | 0.00 | 0.00 | 0.00 | 62 | 1006.7 |
| 20260509215020 | 75 | 34 | 5.0 | 13.0 | 0.00 | 0.00 | 0.00 | 61 | 1006.7 |
| 20260509214632 | 75 | 39 | 5.0 | 14.0 | 0.00 | 0.00 | 0.00 | 62 | 1006.3 |
| 20260509214056 | 75 | 39 | 7.0 | 14.0 | 0.00 | 0.00 | 0.00 | 61 | 1006.4 |
| 20260509213548 | 74 | 33 | 3.0 | 9.0 | 0.00 | 0.00 | 0.00 | 63 | 1006.2 |
| 20260509213015 | 74 | 35 | 2.0 | 9.0 | 0.00 | 0.00 | 0.00 | 62 | 1006.5 |
| 20260509212554 | 74 | 35 | 3.0 | 9.0 | 0.00 | 0.00 | 0.00 | 63 | 1006.5 |
| 20260509212040 | 74 | 35 | 2.0 | 8.0 | 0.00 | 0.00 | 0.00 | 62 | 1006.4 |
| 20260509211527 | 74 | 35 | 2.0 | 8.0 | 0.00 | 0.00 | 0.00 | 62 | 1006.5 |
| 20260509211001 | 74 | 35 | 2.0 | 10.0 | 0.00 | 0.00 | 0.00 | 62 | 1006.4 |
| 20260509210555 | 74 | 35 | 4.0 | 10.0 | 0.00 | 0.00 | 0.00 | 62 | 1006.2 |
| 20260509210045 | 74 | 36 | 5.0 | 9.0 | 0.00 | 0.00 | 0.00 | 63 | 1006.1 |
| 20260509205536 | 73 | 37 | 3.0 | 8.0 | 0.00 | 0.00 | 0.00 | 62 | 1006.1 |
| 20260509205010 | 73 | 37 | 3.0 | 11.0 | 0.00 | 0.00 | 0.00 | 62 | 1006.1 |
| 20260509204603 | 74 | 37 | 4.0 | 11.0 | 0.00 | 0.00 | 0.00 | 62 | 1006.1 |
| 20260509204047 | 74 | 40 | 5.0 | 10.0 | 0.00 | 0.00 | 0.00 | 58 | 1006.2 |
| 20260509203532 | 75 | 39 | 3.0 | 10.0 | 0.00 | 0.00 | 0.00 | 62 | 1006.3 |
| 20260509203059 | 74 | 39 | 4.0 | 12.0 | 0.00 | 0.00 | 0.00 | 59 | 1006.3 |
| 20260509202543 | 74 | 39 | 5.0 | 13.0 | 0.00 | 0.00 | 0.00 | 58 | 1006.3 |
| 20260509202024 | 75 | 37 | 5.0 | 13.0 | 0.00 | 0.00 | 0.00 | 59 | 1006.4 |
| 20260509201535 | 75 | 35 | 5.0 | 13.0 | 0.00 | 0.00 | 0.00 | 59 | 1006.3 |
| 20260509201024 | 75 | 23 | 7.0 | 13.0 | 0.00 | 0.00 | 0.00 | 58 | 1006.4 |
| 20260509200558 | 76 | 33 | 3.0 | 12.0 | 0.00 | 0.00 | 0.00 | 57 | 1006.4 |
| 20260509200001 | 75 | 33 | 4.0 | 12.0 | 0.00 | 0.00 | 0.00 | 58 | 1006.4 |
| 20260509195549 | 75 | 36 | 3.0 | 11.0 | 0.00 | 0.00 | 0.00 | 57 | 1006.4 |
| 20260509195036 | 75 | 37 | 4.0 | 11.0 | 0.00 | 0.00 | 0.00 | 57 | 1006.6 |
| 20260509194547 | 74 | 35 | 0.0 | 10.0 | 0.00 | 0.00 | 0.00 | 63 | 1006.7 |
| 20260509194016 | 74 | 35 | 6.0 | 10.0 | 0.00 | 0.00 | 0.00 | 63 | 1006.9 |
| 20260509193604 | 73 | 41 | 5.0 | 10.0 | 0.00 | 0.00 | 0.00 | 60 | 1006.9 |
| 20260509193055 | 74 | 41 | 5.0 | 10.0 | 0.00 | 0.00 | 0.00 | 60 | 1006.9 |
| 20260509192538 | 74 | 42 | 1.0 | 13.0 | 0.00 | 0.00 | 0.00 | 60 | 1006.8 |
| 20260509192030 | 74 | 45 | 7.0 | 13.0 | 0.00 | 0.00 | 0.00 | 61 | 1006.9 |
| 20260509191539 | 74 | 36 | 3.0 | 11.0 | 0.00 | 0.00 | 0.00 | 58 | 1006.8 |
| 20260509191006 | 74 | 35 | 5.0 | 11.0 | 0.00 | 0.00 | 0.00 | 62 | 1006.8 |
| 20260509190551 | 73 | 39 | 5.0 | 11.0 | 0.00 | 0.00 | 0.00 | 61 | 1006.7 |
| 20260509190104 | 73 | 37 | 1.0 | 11.0 | 0.00 | 0.00 | 0.00 | 59 | 1006.9 |
| 20260509185551 | 74 | 37 | 5.0 | 11.0 | 0.00 | 0.00 | 0.00 | 57 | 1006.9 |
| 20260509185026 | 73 | 45 | 6.0 | 13.0 | 0.00 | 0.00 | 0.00 | 60 | 1006.9 |
| 20260509184548 | 73 | 52 | 7.0 | 11.0 | 0.00 | 0.00 | 0.00 | 58 | 1006.9 |
| 20260509184012 | 73 | 53 | 5.0 | 15.0 | 0.00 | 0.00 | 0.00 | 59 | 1007.1 |
| 20260509183556 | 73 | 50 | 7.0 | 15.0 | 0.00 | 0.00 | 0.00 | 59 | 1007.1 |
| 20260509183008 | 73 | 48 | 6.0 | 12.0 | 0.00 | 0.00 | 0.00 | 60 | 1007.2 |
| 20260509182555 | 73 | 52 | 4.0 | 13.0 | 0.00 | 0.00 | 0.00 | 62 | 1007.2 |
| 20260509182036 | 73 | 52 | 9.0 | 14.0 | 0.00 | 0.00 | 0.00 | 60 | 1007.5 |
| 20260509181545 | 73 | 58 | 6.0 | 14.0 | 0.00 | 0.00 | 0.00 | 63 | 1007.6 |
| 20260509181019 | 72 | 53 | 4.0 | 13.0 | 0.00 | 0.00 | 0.00 | 61 | 1007.6 |
| 20260509180505 | 72 | 59 | 6.0 | 13.0 | 0.00 | 0.00 | 0.00 | 60 | 1007.6 |
| 20260509180056 | 72 | 55 | 4.0 | 12.0 | 0.00 | 0.00 | 0.00 | 63 | 1007.6 |
| 20260509175538 | 71 | 56 | 7.0 | 12.0 | 0.00 | 0.00 | 0.00 | 65 | 1007.9 |
| 20260509175016 | 72 | 57 | 6.0 | 14.0 | 0.00 | 0.00 | 0.00 | 64 | 1008.1 |
| 20260509174527 | 71 | 57 | 2.0 | 14.0 | 0.00 | 0.00 | 0.00 | 67 | 1008.0 |
| 20260509174005 | 71 | 41 | 4.0 | 11.0 | 0.00 | 0.00 | 0.00 | 65 | 1008.2 |
| 20260509173554 | 71 | 41 | 4.0 | 11.0 | 0.00 | 0.00 | 0.00 | 65 | 1008.2 |
| 20260509173051 | 71 | 41 | 5.0 | 11.0 | 0.00 | 0.00 | 0.00 | 67 | 1008.2 |
| 20260509172532 | 70 | 46 | 4.0 | 11.0 | 0.00 | 0.00 | 0.00 | 68 | 1008.2 |
| 20260509172021 | 69 | 46 | 4.0 | 10.0 | 0.00 | 0.00 | 0.00 | 68 | 1008.2 |
| 20260509171531 | 69 | 46 | 3.0 | 11.0 | 0.00 | 0.00 | 0.00 | 73 | 1008.3 |
| 20260509171018 | 69 | 46 | 7.0 | 15.0 | 0.00 | 0.00 | 0.00 | 69 | 1008.6 |
| 20260509170504 | 69 | 45 | 8.0 | 15.0 | 0.00 | 0.00 | 0.00 | 69 | 1008.8 |
| 20260509170027 | 69 | 44 | 7.0 | 13.0 | 0.00 | 0.00 | 0.00 | 68 | 1008.7 |
| 20260509165508 | 68 | 45 | 6.0 | 18.0 | 0.00 | 0.00 | 0.00 | 72 | 1008.8 |
| 20260509165058 | 68 | 46 | 10.0 | 18.0 | 0.00 | 0.00 | 0.00 | 70 | 1008.9 |
| 20260509164509 | 68 | 43 | 8.0 | 15.0 | 0.00 | 0.00 | 0.00 | 70 | 1008.8 |
| 20260509164058 | 69 | 26 | 6.0 | 14.0 | 0.00 | 0.00 | 0.00 | 71 | 1009.0 |
| 20260509163543 | 68 | 9 | 7.0 | 12.0 | 0.00 | 0.00 | 0.00 | 73 | 1009.1 |
| 20260509163046 | 68 | 4 | 5.0 | 14.0 | 0.00 | 0.00 | 0.00 | 74 | 1009.0 |
| 20260509162517 | 68 | 360 | 9.0 | 14.0 | 0.00 | 0.00 | 0.00 | 72 | 1009.0 |
| 20260509162002 | 67 | 4 | 5.0 | 14.0 | 0.00 | 0.00 | 0.00 | 75 | 1009.0 |
| 20260509161523 | 67 | 4 | 10.0 | 14.0 | 0.00 | 0.00 | 0.00 | 72 | 1009.0 |
| 20260509161059 | 68 | 34 | 6.0 | 14.0 | 0.00 | 0.00 | 0.00 | 73 | 1009.0 |
| 20260509160539 | 67 | 45 | 8.0 | 14.0 | 0.00 | 0.00 | 0.00 | 75 | 1009.0 |
| 20260509160027 | 67 | 43 | 10.0 | 14.0 | 0.00 | 0.00 | 0.00 | 73 | 1009.1 |
| 20260509155501 | 67 | 40 | 3.0 | 11.0 | 0.00 | 0.00 | 0.00 | 75 | 1008.9 |
| 20260509155048 | 67 | 43 | 4.0 | 11.0 | 0.00 | 0.00 | 0.00 | 75 | 1008.9 |
| 20260509154557 | 66 | 41 | 5.0 | 11.0 | 0.00 | 0.00 | 0.00 | 76 | 1008.9 |
| 20260509154043 | 66 | 41 | 3.0 | 11.0 | 0.00 | 0.00 | 0.00 | 76 | 1009.0 |
| 20260509153524 | 67 | 41 | 3.0 | 11.0 | 0.00 | 0.00 | 0.00 | 76 | 1009.0 |
| 20260509153046 | 66 | 40 | 1.0 | 13.0 | 0.00 | 0.00 | 0.00 | 76 | 1008.9 |